createdAt,value
2023-01-11T00:01:05.848Z,1.88
2023-01-11T00:03:34.609Z,1.52
2023-01-11T00:08:29.081Z,2.00
2023-01-11T00:10:55.759Z,4.03
2023-01-11T00:13:22.903Z,3.63
2023-01-11T00:15:49.640Z,1.52
2023-01-11T00:18:16.146Z,1.17
2023-01-11T00:20:44.770Z,1.50
2023-01-11T00:23:11.753Z,2.60
2023-01-11T00:25:40.593Z,1.92
2023-01-11T00:28:07.432Z,1.63
2023-01-11T00:30:35.856Z,1.50
2023-01-11T00:33:02.723Z,1.48
2023-01-11T00:35:32.256Z,3.10
2023-01-11T00:37:59.854Z,1.88
2023-01-11T00:40:27.484Z,1.10
2023-01-11T00:43:12.648Z,1.67
2023-01-11T00:45:58.263Z,2.22
2023-01-11T00:48:24.989Z,1.25
2023-01-11T00:50:55.928Z,1.83
2023-01-11T00:53:22.605Z,1.67
2023-01-11T00:55:49.391Z,1.42
2023-01-11T00:58:16.655Z,2.85
2023-01-11T01:00:43.406Z,1.73
2023-01-11T01:03:10.839Z,1.10
2023-01-11T01:05:39.812Z,2.08
2023-01-11T01:08:07.118Z,4.25
2023-01-11T01:10:33.792Z,2.08
2023-01-11T01:13:19.538Z,0.80
2023-01-11T01:15:46.605Z,2.15
2023-01-11T01:18:13.143Z,2.42
2023-01-11T01:20:40.828Z,1.83
2023-01-11T01:23:07.669Z,1.63
2023-01-11T01:25:37.067Z,2.30
2023-01-11T01:28:03.771Z,1.73
2023-01-11T01:30:30.436Z,1.25
2023-01-11T01:32:56.948Z,2.10
2023-01-11T01:35:23.519Z,2.08
2023-01-11T01:37:50.299Z,1.13
2023-01-11T01:40:16.997Z,2.42
2023-01-11T01:42:43.476Z,1.00
2023-01-11T01:45:27.915Z,1.65
2023-01-11T01:48:02.128Z,1.10
2023-01-11T01:50:36.987Z,1.33
2023-01-11T01:53:13.164Z,2.47
2023-01-11T01:55:45.037Z,1.52
2023-01-11T01:58:16.449Z,1.63
2023-01-11T02:00:45.143Z,1.20
2023-01-11T02:05:41.591Z,0.82
2023-01-11T02:08:12.365Z,1.95
2023-01-11T02:10:40.346Z,1.45
2023-01-11T02:13:14.954Z,2.03
2023-01-11T02:15:41.711Z,1.00
2023-01-11T02:18:13.874Z,0.65
2023-01-11T02:20:55.437Z,2.13
2023-01-11T02:23:35.647Z,1.40
2023-01-11T02:26:20.846Z,0.75
2023-01-11T02:28:50.532Z,0.52
2023-01-11T02:31:34.235Z,2.55
2023-01-11T02:34:25.744Z,0.73
2023-01-11T02:37:16.741Z,0.80
2023-01-11T02:40:02.543Z,1.27
2023-01-11T02:42:57.007Z,1.42
2023-01-11T02:46:10.730Z,2.10
2023-01-11T02:48:54.488Z,1.23
2023-01-11T02:51:41.600Z,0.85
2023-01-11T02:54:12.945Z,0.77
2023-01-11T02:56:44.855Z,0.40
2023-01-11T02:59:16.524Z,0.60
2023-01-11T03:01:52.631Z,0.60
2023-01-11T03:04:23.235Z,1.10
2023-01-11T03:07:06.930Z,0.90
2023-01-11T03:10:01.183Z,0.90
2023-01-11T03:12:52.134Z,0.88
2023-01-11T03:15:29.647Z,1.88
2023-01-11T03:18:30.369Z,1.77
2023-01-11T03:21:25.194Z,1.50
2023-01-11T03:24:11.375Z,1.38
2023-01-11T03:26:58.906Z,0.75
2023-01-11T03:29:31.487Z,1.40
2023-01-11T03:32:20.947Z,1.00
2023-01-11T03:34:52.545Z,2.33
2023-01-11T03:37:26.885Z,1.45
2023-01-11T03:40:06.627Z,1.92
2023-01-11T03:42:35.149Z,0.75
2023-01-11T03:45:03.592Z,1.50
2023-01-11T03:47:31.351Z,0.70
2023-01-11T03:50:04.290Z,0.85
2023-01-11T03:52:36.125Z,2.63
2023-01-11T03:55:05.987Z,1.42
2023-01-11T03:57:37.349Z,1.15
2023-01-11T04:00:05.945Z,0.85
2023-01-11T04:02:40.844Z,0.80
2023-01-11T04:05:10.851Z,1.10
2023-01-11T04:07:37.665Z,0.75
2023-01-11T04:10:05.659Z,0.85
2023-01-11T04:12:32.254Z,1.10
2023-01-11T04:14:58.819Z,1.83
2023-01-11T04:17:25.659Z,0.70
2023-01-11T04:19:52.186Z,1.80
2023-01-11T04:22:18.672Z,1.20
2023-01-11T04:24:45.283Z,0.77
2023-01-11T04:27:11.785Z,1.65
2023-01-11T04:29:38.267Z,1.27
2023-01-11T04:32:05.196Z,1.25
2023-01-11T04:34:31.686Z,1.30
2023-01-11T04:36:58.220Z,0.88
2023-01-11T04:39:24.741Z,9.43
2023-01-11T04:42:10.447Z,10.48
2023-01-11T04:44:36.994Z,6.63
2023-01-11T04:47:03.519Z,4.20
2023-01-11T04:49:30.144Z,5.53
2023-01-11T04:51:56.760Z,5.95
2023-01-11T04:54:23.293Z,9.73
2023-01-11T04:56:49.841Z,8.48
2023-01-11T04:59:16.393Z,6.35
2023-01-11T05:01:43.251Z,4.55
2023-01-11T05:04:13.344Z,3.88
2023-01-11T05:06:40.948Z,3.13
2023-01-11T05:09:13.525Z,4.75
2023-01-11T05:11:41.041Z,4.70
2023-01-11T05:14:08.238Z,3.47
2023-01-11T05:16:35.474Z,4.38
2023-01-11T05:19:03.043Z,1.23
2023-01-11T05:21:35.534Z,1.88
2023-01-11T05:24:04.288Z,1.95
2023-01-11T05:29:08.523Z,1.40
2023-01-11T05:31:37.213Z,1.00
2023-01-11T05:36:30.691Z,1.92
2023-01-11T05:38:57.461Z,3.05
2023-01-11T05:41:26.578Z,3.45
2023-01-11T05:44:12.876Z,2.42
2023-01-11T05:46:41.986Z,2.13
2023-01-11T05:49:10.076Z,1.00
2023-01-11T05:51:38.236Z,2.50
2023-01-11T05:54:07.350Z,1.17
2023-01-11T05:56:34.096Z,2.95
2023-01-11T05:59:01.287Z,1.40
2023-01-11T06:01:27.931Z,3.20
2023-01-11T06:03:55.480Z,3.53
2023-01-11T06:06:22.862Z,1.90
2023-01-11T06:08:50.002Z,1.98
2023-01-11T06:11:16.787Z,2.42
2023-01-11T06:13:43.363Z,3.42
2023-01-11T06:16:13.740Z,4.95
2023-01-11T06:18:42.960Z,2.10
2023-01-11T06:21:11.465Z,4.00
2023-01-11T06:23:40.977Z,4.25
2023-01-11T06:26:10.619Z,2.40
2023-01-11T06:28:37.884Z,1.80
2023-01-11T06:31:05.691Z,4.05
2023-01-11T06:33:32.864Z,2.33
2023-01-11T06:36:03.993Z,1.70
2023-01-11T06:38:30.883Z,3.15
2023-01-11T06:41:02.845Z,2.53
2023-01-11T06:43:30.684Z,2.95
2023-01-11T06:45:58.872Z,2.23
2023-01-11T06:48:27.760Z,1.95
2023-01-11T06:50:56.858Z,3.00
2023-01-11T06:53:26.756Z,4.22
2023-01-11T06:55:57.143Z,5.13
2023-01-11T07:00:53.315Z,6.50
2023-01-11T07:03:20.722Z,5.22
2023-01-11T07:05:47.822Z,3.80
2023-01-11T07:08:15.125Z,4.68
2023-01-11T07:10:43.676Z,3.22
2023-01-11T07:13:12.377Z,5.15
2023-01-11T07:18:06.404Z,5.07
2023-01-11T07:20:33.003Z,5.53
2023-01-11T07:23:00.894Z,5.03
2023-01-11T07:25:30.574Z,6.38
2023-01-11T07:27:59.454Z,4.90
2023-01-11T07:30:28.273Z,2.53
2023-01-11T07:32:55.214Z,4.10
2023-01-11T07:35:21.963Z,3.55
2023-01-11T07:37:48.574Z,3.45
2023-01-11T07:40:16.423Z,2.35
2023-01-11T07:43:09.549Z,2.47
2023-01-11T07:45:45.433Z,3.63
2023-01-11T07:48:13.275Z,2.15
2023-01-11T07:50:44.067Z,3.13
2023-01-11T07:53:11.269Z,2.10
2023-01-11T07:55:39.932Z,1.77
2023-01-11T07:58:13.361Z,11.48
2023-01-11T08:00:41.707Z,6.55
2023-01-11T08:03:09.934Z,3.85
2023-01-11T08:05:36.943Z,5.03
2023-01-11T08:08:04.512Z,6.55
2023-01-11T08:10:31.492Z,4.45
2023-01-11T08:13:16.852Z,3.90
2023-01-11T08:15:43.586Z,4.13
2023-01-11T08:18:11.901Z,3.97
2023-01-11T08:20:39.625Z,3.15
2023-01-11T08:23:08.062Z,3.92
2023-01-11T08:25:34.673Z,3.13
2023-01-11T08:28:02.989Z,3.55
2023-01-11T08:30:30.301Z,2.08
2023-01-11T08:32:57.611Z,2.05
2023-01-11T08:35:25.867Z,2.13
2023-01-11T08:37:52.940Z,2.47
2023-01-11T08:40:21.074Z,2.38
2023-01-11T08:42:49.359Z,18.50
2023-01-11T08:45:15.875Z,8.35
2023-01-11T08:47:42.437Z,4.50
2023-01-11T08:50:10.615Z,6.22
2023-01-11T08:52:37.097Z,7.80
2023-01-11T08:55:07.642Z,3.80
2023-01-11T08:57:35.208Z,5.40
2023-01-11T09:00:04.536Z,4.43
2023-01-11T09:02:31.383Z,6.85
2023-01-11T09:04:57.914Z,8.18
2023-01-11T09:07:24.640Z,3.22
2023-01-11T09:09:52.103Z,7.25
2023-01-11T09:12:19.148Z,5.43
2023-01-11T09:14:45.649Z,6.80
2023-01-11T09:17:12.111Z,10.40
2023-01-11T09:19:38.669Z,12.30
2023-01-11T09:22:06.197Z,9.07
2023-01-11T09:24:32.733Z,12.48
2023-01-11T09:26:59.982Z,7.30
2023-01-11T09:29:26.944Z,6.18
2023-01-11T09:31:53.667Z,7.13
2023-01-11T09:34:21.111Z,4.75
2023-01-11T09:36:48.821Z,7.07
2023-01-11T09:39:19.624Z,9.47
2023-01-11T09:42:05.679Z,6.18
2023-01-11T09:44:36.295Z,7.82
2023-01-11T09:47:47.072Z,3.95
2023-01-11T09:50:23.873Z,5.95
2023-01-11T09:52:58.002Z,6.53
2023-01-11T09:55:46.706Z,7.68
2023-01-11T09:58:32.422Z,5.18
2023-01-11T10:01:17.316Z,5.55
2023-01-11T10:04:22.495Z,7.07
2023-01-11T10:07:26.324Z,9.75
2023-01-11T10:18:28.381Z,5.38
2023-01-11T10:19:39.481Z,5.28
2023-01-11T10:22:32.769Z,8.05
2023-01-11T10:25:11.601Z,5.05
2023-01-11T10:27:46.842Z,4.07
2023-01-11T10:30:57.979Z,6.20
2023-01-11T10:34:03.998Z,7.47
2023-01-11T10:37:07.117Z,2.58
2023-01-11T10:40:06.251Z,6.80
2023-01-11T10:42:44.137Z,4.80
2023-01-11T10:45:18.864Z,8.63
2023-01-11T10:47:55.586Z,4.55
2023-01-11T10:50:33.227Z,4.35
2023-01-11T10:53:06.453Z,6.18
2023-01-11T10:56:02.325Z,5.47
2023-01-11T10:58:47.161Z,5.07
2023-01-11T11:01:17.334Z,4.70
2023-01-11T11:03:56.146Z,4.93
2023-01-11T11:06:37.944Z,4.97
2023-01-11T11:09:10.789Z,6.25
2023-01-11T11:11:53.011Z,4.65
2023-01-11T11:14:22.807Z,3.63
2023-01-11T11:17:01.690Z,4.00
2023-01-11T11:19:32.838Z,5.93
2023-01-11T11:22:00.113Z,3.45
2023-01-11T11:24:44.028Z,6.35
2023-01-11T11:27:29.229Z,3.05
2023-01-11T11:29:57.317Z,4.00
2023-01-11T11:32:31.446Z,5.88
2023-01-11T11:34:58.521Z,4.68
2023-01-11T11:37:36.504Z,3.90
2023-01-11T11:40:04.373Z,4.75
2023-01-11T11:42:30.931Z,5.97
2023-01-11T11:45:15.712Z,5.75
2023-01-11T11:47:44.100Z,6.18
2023-01-11T11:50:41.956Z,11.25
2023-01-11T11:53:06.272Z,6.88
2023-01-11T11:55:34.836Z,6.35
2023-01-11T11:58:13.161Z,6.47
2023-01-11T12:00:50.330Z,9.05
2023-01-11T12:03:30.350Z,8.13
2023-01-11T12:06:02.302Z,8.68
2023-01-11T12:08:31.698Z,9.23
2023-01-11T12:11:02.850Z,6.85
2023-01-11T12:13:38.285Z,7.03
2023-01-11T12:16:08.195Z,11.35
2023-01-11T12:18:37.728Z,7.57
2023-01-11T12:21:20.342Z,7.07
2023-01-11T12:23:47.953Z,5.70
2023-01-11T12:26:27.463Z,6.72
2023-01-11T12:29:00.097Z,7.80
2023-01-11T12:31:29.482Z,7.90
2023-01-11T12:33:56.025Z,8.63
2023-01-11T12:36:47.746Z,6.28
2023-01-11T12:39:25.432Z,6.15
2023-01-11T12:42:01.446Z,11.13
2023-01-11T12:44:41.579Z,9.82
2023-01-11T12:47:21.413Z,9.68
2023-01-11T12:50:03.098Z,9.82
2023-01-11T12:52:52.785Z,7.63
2023-01-11T12:55:32.689Z,7.10
2023-01-11T12:58:14.477Z,9.70
2023-01-11T13:01:09.804Z,6.90
2023-01-11T13:04:12.319Z,4.13
2023-01-11T13:07:03.458Z,5.28
2023-01-11T13:09:32.728Z,7.07
2023-01-11T13:12:31.603Z,8.48
2023-01-11T13:14:58.146Z,4.72
2023-01-11T13:17:31.525Z,3.58
2023-01-11T13:20:34.237Z,5.82
2023-01-11T13:23:33.155Z,2.60
2023-01-11T13:26:11.470Z,3.78
2023-01-11T13:28:41.887Z,3.17
2023-01-11T13:31:13.774Z,3.28
2023-01-11T13:33:47.307Z,5.47
2023-01-11T13:36:23.324Z,4.10
2023-01-11T13:39:00.597Z,4.45
2023-01-11T13:41:49.002Z,6.78
2023-01-11T13:44:23.205Z,6.65
2023-01-11T13:47:08.055Z,2.72
2023-01-11T13:50:05.661Z,4.80
2023-01-11T13:52:56.278Z,2.97
2023-01-11T13:55:36.999Z,7.07
2023-01-11T13:58:19.366Z,3.08
2023-01-11T14:01:02.708Z,4.95
2023-01-11T14:03:37.115Z,3.13
2023-01-11T14:06:19.648Z,3.15
2023-01-11T14:09:11.449Z,3.75
2023-01-11T14:11:50.904Z,3.67
2023-01-11T14:14:29.628Z,5.70
2023-01-11T14:17:20.990Z,5.60
2023-01-11T14:19:59.821Z,6.35
2023-01-11T14:22:42.434Z,6.60
2023-01-11T14:25:18.760Z,6.07
2023-01-11T14:28:19.080Z,4.72
2023-01-11T14:31:14.643Z,5.63
2023-01-11T14:33:44.360Z,5.75
2023-01-11T14:36:20.965Z,4.47
2023-01-11T14:38:59.657Z,3.10
2023-01-11T14:41:44.907Z,7.88
2023-01-11T14:44:36.397Z,7.18
2023-01-11T14:47:36.067Z,5.00
2023-01-11T14:50:41.097Z,7.88
2023-01-11T14:53:16.560Z,4.88
2023-01-11T14:55:49.155Z,11.27
2023-01-11T14:58:21.445Z,13.23
2023-01-11T15:00:48.033Z,16.05
2023-01-11T15:03:20.871Z,10.80
2023-01-11T15:06:21.959Z,7.97
2023-01-11T15:08:48.501Z,7.72
2023-01-11T15:11:33.335Z,6.60
2023-01-11T15:14:05.475Z,9.45
2023-01-11T15:16:53.645Z,9.90
2023-01-11T15:19:28.946Z,5.07
2023-01-11T15:21:58.157Z,7.82
2023-01-11T15:24:34.375Z,6.72
2023-01-11T15:27:02.320Z,4.60
2023-01-11T15:29:32.746Z,9.50
2023-01-11T15:32:02.472Z,7.85
2023-01-11T15:34:42.834Z,5.45
2023-01-11T15:37:28.229Z,6.43
2023-01-11T15:39:59.062Z,8.90
2023-01-11T15:42:58.207Z,9.10
2023-01-11T15:46:05.135Z,7.65
2023-01-11T15:48:44.171Z,8.60
2023-01-11T15:51:36.804Z,8.80
2023-01-11T15:54:31.497Z,9.23
2023-01-11T15:57:19.663Z,9.10
2023-01-11T16:00:08.247Z,11.35
2023-01-11T16:02:52.614Z,11.43
2023-01-11T16:05:23.691Z,9.93
2023-01-11T16:08:47.345Z,7.97
2023-01-11T16:11:28.528Z,6.80
2023-01-11T16:14:26.449Z,10.45
2023-01-11T16:16:55.836Z,9.48
2023-01-11T16:19:26.297Z,13.02
2023-01-11T16:21:56.914Z,8.77
2023-01-11T16:24:26.982Z,12.48
2023-01-11T16:26:56.570Z,11.77
2023-01-11T16:29:25.632Z,11.70
2023-01-11T16:31:58.453Z,12.20
2023-01-11T16:34:30.128Z,18.17
2023-01-11T16:36:57.701Z,14.15
2023-01-11T16:39:29.819Z,11.00
2023-01-11T16:42:01.799Z,15.52
2023-01-11T16:44:36.889Z,15.20
2023-01-11T16:47:11.421Z,15.60
2023-01-11T16:49:39.918Z,20.83
2023-01-11T16:52:28.398Z,19.27
2023-01-11T16:54:56.963Z,19.23
2023-01-11T16:57:32.665Z,14.50
2023-01-11T17:00:08.194Z,19.33
2023-01-11T17:02:40.273Z,20.40
2023-01-11T17:05:20.322Z,19.85
2023-01-11T17:07:46.955Z,15.95
2023-01-11T17:10:22.293Z,11.43
2023-01-11T17:13:32.496Z,10.90
2023-01-11T17:16:06.634Z,12.38
2023-01-11T17:18:33.354Z,12.38
2023-01-11T17:21:00.110Z,10.43
2023-01-11T17:23:26.803Z,11.77
2023-01-11T17:25:57.616Z,10.82
2023-01-11T17:28:26.041Z,13.30
2023-01-11T17:30:54.069Z,13.30
2023-01-11T17:33:27.416Z,14.32
2023-01-11T17:35:55.115Z,19.17
2023-01-11T17:38:24.391Z,18.33
2023-01-11T17:40:51.968Z,14.40
2023-01-11T17:43:44.178Z,14.50
2023-01-11T17:46:19.627Z,13.63
2023-01-11T17:48:55.421Z,12.65
2023-01-11T17:51:33.527Z,12.70
2023-01-11T17:54:00.544Z,17.52
2023-01-11T17:56:33.159Z,15.13
2023-01-11T17:59:11.963Z,16.48
2023-01-11T18:01:39.693Z,14.73
2023-01-11T18:04:17.088Z,16.70
2023-01-11T18:06:45.424Z,18.00
2023-01-11T18:09:29.352Z,14.77
2023-01-11T18:12:30.206Z,11.68
2023-01-11T18:14:59.975Z,12.15
2023-01-11T18:17:32.751Z,12.25
2023-01-11T18:20:00.249Z,14.40
2023-01-11T18:22:40.705Z,16.35
2023-01-11T18:25:24.070Z,15.15
2023-01-11T18:27:51.348Z,16.95
2023-01-11T18:30:33.607Z,16.60
2023-01-11T18:33:03.335Z,17.02
2023-01-11T18:35:30.766Z,13.63
2023-01-11T18:37:57.482Z,15.88
2023-01-11T18:40:24.140Z,16.42
2023-01-11T18:42:52.836Z,15.95
2023-01-11T18:47:47.249Z,14.95
2023-01-11T18:50:14.166Z,18.15
2023-01-11T18:52:41.072Z,15.57
2023-01-11T18:55:11.568Z,16.83
2023-01-11T18:57:38.063Z,14.70
2023-01-11T19:00:05.626Z,17.35
2023-01-11T19:02:44.110Z,18.40
2023-01-11T19:07:38.634Z,19.05
2023-01-11T19:10:05.706Z,19.20
2023-01-11T19:12:32.340Z,14.65
2023-01-11T19:14:59.317Z,17.08
2023-01-11T19:17:28.781Z,17.00
2023-01-11T19:19:55.567Z,16.30
2023-01-11T19:22:26.141Z,16.10
2023-01-11T19:24:53.868Z,20.23
2023-01-11T19:27:20.828Z,15.77
2023-01-11T19:29:47.469Z,17.00
2023-01-11T19:32:15.773Z,15.80
2023-01-11T19:34:42.852Z,15.90
2023-01-11T19:37:10.074Z,18.60
2023-01-11T19:39:37.251Z,19.90
2023-01-11T19:42:04.037Z,18.00
2023-01-11T19:44:32.696Z,17.70
2023-01-11T19:49:41.157Z,16.50
2023-01-11T19:52:12.749Z,17.95
2023-01-11T19:54:44.584Z,15.85
2023-01-11T19:57:18.046Z,13.48
2023-01-11T19:59:44.813Z,12.57
2023-01-11T20:02:13.414Z,13.30
2023-01-11T20:04:41.343Z,10.77
2023-01-11T20:07:09.720Z,14.50
2023-01-11T20:09:39.949Z,10.40
2023-01-11T20:12:08.232Z,9.13
2023-01-11T20:14:35.275Z,7.55
2023-01-11T20:17:02.212Z,7.63
2023-01-11T20:19:29.781Z,8.55
2023-01-11T20:21:56.592Z,6.45
2023-01-11T20:24:30.168Z,6.85
2023-01-11T20:26:58.623Z,7.82
2023-01-11T20:29:25.454Z,5.18
2023-01-11T20:31:52.434Z,4.72
2023-01-11T20:34:19.100Z,7.18
2023-01-11T20:36:45.794Z,6.72
2023-01-11T20:39:12.732Z,7.45
2023-01-11T20:41:49.720Z,5.15
2023-01-11T20:44:18.122Z,5.82
2023-01-11T20:46:47.622Z,5.05
2023-01-11T20:49:15.295Z,7.47
2023-01-11T20:51:42.884Z,3.97
2023-01-11T20:54:10.612Z,5.70
2023-01-11T20:56:41.805Z,3.63
2023-01-11T21:04:10.793Z,5.57
2023-01-11T21:06:39.694Z,4.55
2023-01-11T21:09:11.392Z,2.97
2023-01-11T21:11:41.751Z,4.20
2023-01-11T21:14:14.418Z,4.57
2023-01-11T21:16:43.037Z,5.15
2023-01-11T21:21:42.154Z,4.32
2023-01-11T21:24:12.447Z,2.30
2023-01-11T21:26:39.901Z,2.63
2023-01-11T21:29:06.927Z,3.22
2023-01-11T21:31:35.312Z,5.63
2023-01-11T21:34:02.867Z,4.95
2023-01-11T21:36:31.269Z,4.00
2023-01-11T21:38:59.416Z,4.25
2023-01-11T21:41:47.501Z,5.65
2023-01-11T21:44:15.395Z,4.30
2023-01-11T21:46:42.748Z,2.63
2023-01-11T21:49:10.795Z,2.92
2023-01-11T21:51:38.777Z,6.20
2023-01-11T21:56:34.292Z,4.37
2023-01-11T21:59:01.039Z,3.35
2023-01-11T22:01:28.000Z,4.82
2023-01-11T22:03:55.001Z,3.05
2023-01-11T22:06:21.843Z,4.05
2023-01-11T22:08:48.543Z,3.50
2023-01-11T22:11:16.567Z,2.85
2023-01-11T22:13:43.527Z,3.58
2023-01-11T22:16:17.885Z,3.40
2023-01-11T22:18:45.759Z,2.58
2023-01-11T22:21:18.011Z,3.83
2023-01-11T22:23:47.243Z,3.88
2023-01-11T22:26:18.004Z,3.07
2023-01-11T22:29:06.267Z,2.47
2023-01-11T22:34:00.807Z,3.45
2023-01-11T22:36:28.646Z,3.63
2023-01-11T22:38:56.009Z,3.50
2023-01-11T22:41:24.978Z,3.83
2023-01-11T22:43:52.140Z,4.40
2023-01-11T22:46:21.629Z,5.18
2023-01-11T22:48:48.890Z,2.85
2023-01-11T22:51:17.779Z,2.83
2023-01-11T22:53:45.905Z,2.97
2023-01-11T22:56:14.849Z,1.80
2023-01-11T22:58:41.960Z,6.13
2023-01-11T23:01:20.218Z,2.60
2023-01-11T23:03:46.837Z,1.50
2023-01-11T23:06:16.842Z,2.13
2023-01-11T23:08:43.808Z,1.58
2023-01-11T23:11:38.152Z,3.22
2023-01-11T23:14:07.176Z,3.08
2023-01-11T23:16:34.073Z,4.00
2023-01-11T23:19:01.026Z,1.38
2023-01-11T23:21:28.036Z,2.60
2023-01-11T23:23:54.742Z,1.95
2023-01-11T23:26:21.754Z,3.13
2023-01-11T23:28:49.745Z,1.25
2023-01-11T23:31:19.548Z,3.03
2023-01-11T23:33:51.820Z,1.27
2023-01-11T23:36:20.594Z,2.85
2023-01-11T23:38:47.539Z,2.08
2023-01-11T23:41:34.815Z,3.60
2023-01-11T23:44:04.273Z,3.10
2023-01-11T23:46:49.827Z,2.03
2023-01-11T23:49:16.414Z,2.67
2023-01-11T23:51:44.207Z,4.28
2023-01-11T23:54:12.146Z,2.90
2023-01-11T23:56:39.829Z,2.90
2023-01-11T23:59:07.241Z,1.13
